Garvin, Oklahoma
Current Conditions -  °F | °C
As of 8:35 PM on Thursday 20 Nov 2014 (Local Time) from K4O4 Reporting Station
Scattered Clouds Scattered Clouds  
Wind Chill: 42°   Ceiling: Unl
Heat Index: 46°   Visibility: 5mi
Dew Point: 45°   Wind: 8mph
Humidity: 93%   Direction: 80°E
Pressure: 30.12"   Gusts: NA
Location:  33.95°N, 94.94°W
Report Text: K4O4 210235Z AUTO 08007KT 5SM SCT010 SCT044 08/07 A3012 RMK AO2
Loading
Personal Weather Stations






























Interactive Weather Map New forecast layout! Learn more

10-Day Weather Forecast

Advertisements
Track Severe Weather on mobile